createdAt,value
2018-04-01T00:01:42.301Z,3.60
2018-04-01T00:04:08.787Z,3.70
2018-04-01T00:06:35.277Z,5.00
2018-04-01T00:09:01.753Z,3.77
2018-04-01T00:11:28.245Z,3.17
2018-04-01T00:13:54.730Z,3.83
2018-04-01T00:16:21.215Z,3.80
2018-04-01T00:18:47.698Z,4.40
2018-04-01T00:21:14.184Z,4.20
2018-04-01T00:23:40.668Z,3.80
2018-04-01T00:26:07.154Z,3.43
2018-04-01T00:28:33.639Z,4.33
2018-04-01T00:31:00.131Z,4.17
2018-04-01T00:33:26.611Z,4.63
2018-04-01T00:35:53.088Z,5.20
2018-04-01T00:38:19.567Z,4.30
2018-04-01T00:40:46.046Z,3.67
2018-04-01T00:43:12.561Z,4.20
2018-04-01T00:45:39.046Z,4.30
2018-04-01T00:48:05.525Z,4.93
2018-04-01T00:50:32.008Z,4.43
2018-04-01T00:52:58.482Z,4.00
2018-04-01T00:55:24.970Z,3.73
2018-04-01T00:57:51.475Z,3.20
2018-04-01T01:00:17.960Z,3.60
2018-04-01T01:02:44.444Z,3.70
2018-04-01T01:05:10.920Z,3.37
2018-04-01T01:07:37.451Z,3.67
2018-04-01T01:10:03.935Z,4.80
2018-04-01T01:12:30.433Z,3.40
2018-04-01T01:14:56.950Z,4.10
2018-04-01T01:17:23.439Z,3.93
2018-04-01T01:19:49.946Z,3.90
2018-04-01T01:22:16.419Z,4.30
2018-04-01T01:24:42.895Z,3.37
2018-04-01T01:27:09.384Z,2.37
2018-04-01T01:29:35.896Z,2.43
2018-04-01T01:32:02.384Z,2.50
2018-04-01T01:34:28.870Z,3.20
2018-04-01T01:36:55.362Z,3.30
2018-04-01T01:39:21.847Z,2.90
2018-04-01T01:41:48.338Z,2.77
2018-04-01T01:44:14.865Z,2.30
2018-04-01T01:46:41.372Z,2.30
2018-04-01T01:49:07.862Z,2.53
2018-04-01T01:51:34.459Z,2.03
2018-04-01T01:54:00.936Z,2.10
2018-04-01T01:56:27.467Z,2.57
2018-04-01T01:58:53.982Z,2.33
2018-04-01T02:01:20.486Z,2.30
2018-04-01T02:03:46.983Z,2.30
2018-04-01T02:06:13.459Z,2.77
2018-04-01T02:08:39.945Z,2.70
2018-04-01T02:11:06.572Z,4.00
2018-04-01T02:13:33.060Z,4.13
2018-04-01T02:15:59.577Z,5.00
2018-04-01T02:18:26.058Z,5.80
2018-04-01T02:20:52.596Z,6.03
2018-04-01T02:23:19.087Z,5.73
2018-04-01T02:25:45.591Z,5.07
2018-04-01T02:28:12.065Z,4.67
2018-04-01T02:30:38.554Z,4.90
2018-04-01T02:33:05.051Z,4.90
2018-04-01T02:35:31.567Z,3.90
2018-04-01T02:37:58.054Z,5.20
2018-04-01T02:40:24.538Z,5.97
2018-04-01T02:42:51.029Z,4.50
2018-04-01T02:45:17.533Z,4.93
2018-04-01T02:47:44.018Z,5.97
2018-04-01T02:50:10.580Z,6.00
2018-04-01T02:52:37.083Z,6.50
2018-04-01T02:55:03.572Z,6.93
2018-04-01T02:57:30.041Z,9.07
2018-04-01T02:59:56.558Z,9.30
2018-04-01T03:02:23.093Z,9.17
2018-04-01T03:04:49.587Z,9.20
2018-04-01T03:07:16.100Z,10.07
2018-04-01T03:09:42.586Z,10.83
2018-04-01T03:12:09.117Z,9.23
2018-04-01T03:14:35.655Z,7.60
2018-04-01T03:17:02.140Z,7.80
2018-04-01T03:19:28.637Z,6.20
2018-04-01T03:21:55.120Z,7.73
2018-04-01T03:24:21.610Z,5.70
2018-04-01T03:26:48.106Z,5.90
2018-04-01T03:29:14.585Z,4.67
2018-04-01T03:31:41.077Z,3.70
2018-04-01T03:34:07.564Z,4.60
2018-04-01T03:36:34.059Z,5.40
2018-04-01T03:39:00.540Z,3.93
2018-04-01T03:41:27.159Z,3.57
2018-04-01T03:43:53.662Z,4.73
2018-04-01T03:46:20.142Z,5.20
2018-04-01T03:48:46.630Z,4.90
2018-04-01T03:51:13.115Z,3.93
2018-04-01T03:53:39.595Z,3.70
2018-04-01T03:56:06.125Z,3.57
2018-04-01T03:58:32.622Z,2.63
2018-04-01T04:00:59.121Z,2.87
2018-04-01T04:03:25.648Z,3.13
2018-04-01T04:05:52.170Z,3.10
2018-04-01T04:08:18.700Z,3.30
2018-04-01T04:10:45.182Z,3.23
2018-04-01T04:13:11.661Z,3.00
2018-04-01T04:15:38.146Z,2.77
2018-04-01T04:18:04.631Z,3.10
2018-04-01T04:20:31.122Z,2.47
2018-04-01T04:22:57.641Z,2.23
2018-04-01T04:25:24.149Z,3.03
2018-04-01T04:27:50.630Z,2.30
2018-04-01T04:30:17.156Z,2.80
2018-04-01T04:32:43.642Z,3.00
2018-04-01T04:35:10.121Z,3.90
2018-04-01T04:37:36.606Z,4.73
2018-04-01T04:40:03.099Z,4.87
2018-04-01T04:42:29.573Z,2.17
2018-04-01T04:44:56.111Z,2.80
2018-04-01T04:47:22.596Z,2.23
2018-04-01T04:49:49.103Z,2.37
2018-04-01T04:52:15.598Z,2.67
2018-04-01T04:54:42.094Z,2.27
2018-04-01T04:57:08.631Z,2.30
2018-04-01T04:59:35.433Z,1.77
2018-04-01T05:02:02.857Z,1.90
2018-04-01T05:04:29.342Z,2.10
2018-04-01T05:06:55.828Z,2.10
2018-04-01T05:09:22.310Z,2.00
2018-04-01T05:11:49.026Z,2.03
2018-04-01T05:14:15.521Z,2.00
2018-04-01T05:16:42.014Z,5.50
2018-04-01T05:19:08.504Z,2.60
2018-04-01T05:21:35.110Z,2.30
2018-04-01T05:24:01.653Z,2.67
2018-04-01T05:26:28.150Z,3.27
2018-04-01T05:28:54.646Z,2.40
2018-04-01T05:31:21.122Z,2.50
2018-04-01T05:33:47.612Z,2.30
2018-04-01T05:36:14.094Z,3.53
2018-04-01T05:38:40.590Z,2.77
2018-04-01T05:41:07.084Z,2.83
2018-04-01T05:43:33.600Z,2.70
2018-04-01T05:46:00.111Z,2.30
2018-04-01T05:48:26.661Z,2.77
2018-04-01T05:50:53.145Z,2.50
2018-04-01T05:53:19.630Z,2.50
2018-04-01T05:55:46.186Z,2.27
2018-04-01T05:58:12.675Z,2.47
2018-04-01T06:00:39.169Z,2.43
2018-04-01T06:03:05.660Z,1.90
2018-04-01T06:05:32.152Z,2.97
2018-04-01T06:07:58.634Z,2.80
2018-04-01T06:10:25.116Z,2.43
2018-04-01T06:12:51.648Z,2.20
2018-04-01T06:15:18.166Z,2.13
2018-04-01T06:17:44.648Z,2.37
2018-04-01T06:20:11.146Z,2.20
2018-04-01T06:22:37.626Z,2.50
2018-04-01T06:25:04.288Z,2.70
2018-04-01T06:27:30.774Z,2.50
2018-04-01T06:29:57.251Z,2.50
2018-04-01T06:32:23.893Z,2.80
2018-04-01T06:34:50.382Z,2.47
2018-04-01T06:37:16.905Z,3.00
2018-04-01T06:39:43.414Z,2.60
2018-04-01T06:42:09.903Z,2.73
2018-04-01T06:44:36.388Z,2.57
2018-04-01T06:47:02.883Z,2.60
2018-04-01T06:49:29.366Z,2.53
2018-04-01T06:51:55.848Z,2.20
2018-04-01T06:54:22.324Z,2.43
2018-04-01T06:56:48.827Z,2.17
2018-04-01T06:59:15.300Z,2.43
2018-04-01T07:01:41.789Z,1.97
2018-04-01T07:04:08.354Z,2.30
2018-04-01T07:06:34.872Z,2.00
2018-04-01T07:09:01.354Z,2.20
2018-04-01T07:11:27.836Z,1.73
2018-04-01T07:13:54.323Z,1.67
2018-04-01T07:16:20.800Z,2.20
2018-04-01T07:18:47.291Z,2.17
2018-04-01T07:21:13.768Z,2.43
2018-04-01T07:23:40.256Z,2.30
2018-04-01T07:26:06.874Z,2.33
2018-04-01T07:28:33.461Z,1.70
2018-04-01T07:30:59.977Z,1.87
2018-04-01T07:33:27.242Z,2.80
2018-04-01T07:35:53.738Z,3.03
2018-04-01T07:38:20.575Z,3.50
2018-04-01T07:40:47.210Z,2.97
2018-04-01T07:43:13.710Z,2.60
2018-04-01T07:45:40.194Z,2.47
2018-04-01T07:48:06.696Z,2.40
2018-04-01T07:50:33.190Z,2.23
2018-04-01T07:52:59.708Z,1.50
2018-04-01T07:55:26.197Z,1.67
2018-04-01T07:57:52.676Z,1.90
2018-04-01T08:00:19.164Z,2.13
2018-04-01T08:02:45.652Z,2.37
2018-04-01T08:05:12.154Z,2.50
2018-04-01T08:07:38.648Z,2.30
2018-04-01T08:10:05.140Z,2.40
2018-04-01T08:12:31.627Z,1.90
2018-04-01T08:14:58.147Z,1.67
2018-04-01T08:17:24.664Z,1.63
2018-04-01T08:19:51.148Z,2.10
2018-04-01T08:22:17.686Z,1.63
2018-04-01T08:24:44.173Z,1.80
2018-04-01T08:27:10.656Z,1.87
2018-04-01T08:29:37.138Z,1.70
2018-04-01T08:32:03.622Z,1.70
2018-04-01T08:34:30.098Z,1.40
2018-04-01T08:36:56.598Z,1.60
2018-04-01T08:39:23.080Z,1.80
2018-04-01T08:41:49.567Z,1.60
2018-04-01T08:44:16.057Z,1.63
2018-04-01T08:46:42.554Z,1.40
2018-04-01T08:49:09.058Z,1.47
2018-04-01T08:51:35.550Z,1.30
2018-04-01T08:54:02.036Z,1.73
2018-04-01T08:56:28.537Z,1.80
2018-04-01T08:58:55.019Z,1.60
2018-04-01T09:01:21.520Z,1.90
2018-04-01T09:03:47.999Z,1.70
2018-04-01T09:06:14.476Z,1.80
2018-04-01T09:08:40.950Z,1.60
2018-04-01T09:11:07.427Z,2.00
2018-04-01T09:13:33.913Z,2.40
2018-04-01T09:16:00.582Z,1.80
2018-04-01T09:18:27.073Z,1.73
2018-04-01T09:20:53.549Z,1.77
2018-04-01T09:23:20.073Z,1.53
2018-04-01T09:25:46.554Z,1.83
2018-04-01T09:28:13.056Z,1.80
2018-04-01T09:30:39.561Z,2.57
2018-04-01T09:33:06.050Z,2.10
2018-04-01T09:35:33.353Z,3.10
2018-04-01T09:37:59.890Z,2.97
2018-04-01T09:40:26.377Z,2.67
2018-04-01T09:42:52.873Z,2.40
2018-04-01T09:45:19.351Z,2.97
2018-04-01T09:47:45.837Z,3.90
2018-04-01T09:50:12.329Z,3.50
2018-04-01T09:52:38.830Z,3.20
2018-04-01T09:55:05.476Z,2.60
2018-04-01T09:57:32.112Z,2.13
2018-04-01T09:59:58.616Z,1.73
2018-04-01T10:02:25.329Z,1.90
2018-04-01T10:05:08.933Z,2.30
2018-04-01T10:07:36.077Z,1.80
2018-04-01T10:10:02.794Z,1.60
2018-04-01T10:12:29.551Z,1.63
2018-04-01T10:14:56.278Z,1.30
2018-04-01T10:17:23.027Z,1.50
2018-04-01T10:19:49.752Z,1.97
2018-04-01T10:22:16.608Z,1.57
2018-04-01T10:24:43.330Z,1.30
2018-04-01T10:27:10.193Z,1.50
2018-04-01T10:29:37.136Z,2.13
2018-04-01T10:32:04.328Z,1.80
2018-04-01T10:34:31.064Z,1.37
2018-04-01T10:36:57.795Z,1.37
2018-04-01T10:39:24.514Z,1.63
2018-04-01T10:41:51.234Z,1.20
2018-04-01T10:44:17.960Z,1.33
2018-04-01T10:46:44.692Z,1.50
2018-04-01T10:49:11.500Z,1.13
2018-04-01T10:51:38.270Z,1.27
2018-04-01T10:54:04.752Z,1.27
2018-04-01T10:56:31.286Z,1.20
2018-04-01T10:58:57.770Z,4.27
2018-04-01T11:01:24.265Z,1.93
2018-04-01T11:03:50.748Z,1.30
2018-04-01T11:06:17.264Z,1.30
2018-04-01T11:08:43.767Z,1.70
2018-04-01T11:11:10.266Z,1.60
2018-04-01T11:13:36.755Z,1.50
2018-04-01T11:16:03.260Z,1.30
2018-04-01T11:18:29.740Z,1.30
2018-04-01T11:20:56.958Z,3.80
2018-04-01T11:23:23.437Z,1.40
2018-04-01T11:25:49.929Z,2.53
2018-04-01T11:28:16.400Z,1.60
2018-04-01T11:30:42.864Z,1.33
2018-04-01T11:33:09.337Z,1.27
2018-04-01T11:35:35.823Z,1.47
2018-04-01T11:38:02.307Z,1.50
2018-04-01T11:40:28.797Z,1.50
2018-04-01T11:42:55.280Z,1.03
2018-04-01T11:45:21.766Z,1.00
2018-04-01T11:47:48.249Z,1.27
2018-04-01T11:50:14.735Z,1.27
2018-04-01T11:52:41.214Z,1.27
2018-04-01T11:55:07.697Z,1.50
2018-04-01T11:57:34.211Z,1.43
2018-04-01T12:00:00.682Z,1.30
2018-04-01T12:02:27.171Z,1.70
2018-04-01T12:04:53.646Z,1.33
2018-04-01T12:07:20.126Z,1.10
2018-04-01T12:09:46.611Z,1.20
2018-04-01T12:12:13.101Z,1.10
2018-04-01T12:14:39.576Z,1.20
2018-04-01T12:17:06.054Z,0.90
2018-04-01T12:19:32.534Z,1.20
2018-04-01T12:21:59.016Z,1.07
2018-04-01T12:24:25.544Z,1.23
2018-04-01T12:26:52.056Z,0.90
2018-04-01T12:29:18.546Z,1.33
2018-04-01T12:31:45.027Z,1.03
2018-04-01T12:34:11.502Z,1.10
2018-04-01T12:36:37.987Z,1.00
2018-04-01T12:39:04.483Z,0.90
2018-04-01T12:41:30.970Z,1.00
2018-04-01T12:43:57.441Z,1.10
2018-04-01T12:46:23.925Z,0.77
2018-04-01T12:48:50.423Z,0.70
2018-04-01T12:51:16.896Z,0.80
2018-04-01T12:53:43.374Z,0.90
2018-04-01T12:56:09.849Z,0.87
2018-04-01T12:58:36.334Z,0.83
2018-04-01T13:01:02.807Z,1.03
2018-04-01T13:03:29.314Z,0.80
2018-04-01T13:05:55.786Z,0.80
2018-04-01T13:08:22.266Z,0.70
2018-04-01T13:10:48.739Z,0.70
2018-04-01T13:13:15.214Z,0.83
2018-04-01T13:15:41.699Z,0.60
2018-04-01T13:18:08.195Z,0.80
2018-04-01T13:20:34.667Z,0.90
2018-04-01T13:23:01.132Z,1.07
2018-04-01T13:25:27.604Z,0.67
2018-04-01T13:27:54.086Z,0.60
2018-04-01T13:30:20.565Z,0.70
2018-04-01T13:32:47.040Z,1.30
2018-04-01T13:35:13.549Z,1.10
2018-04-01T13:37:40.010Z,1.40
2018-04-01T13:40:06.500Z,1.83
2018-04-01T13:42:32.975Z,1.20
2018-04-01T13:44:59.449Z,1.40
2018-04-01T13:47:25.937Z,0.93
2018-04-01T13:49:52.414Z,4.37
2018-04-01T13:52:18.911Z,3.37
2018-04-01T13:54:45.419Z,2.20
2018-04-01T13:57:11.908Z,2.00
2018-04-01T13:59:38.400Z,1.57
2018-04-01T14:02:04.948Z,2.37
2018-04-01T14:04:31.450Z,2.63
2018-04-01T14:06:57.946Z,1.90
2018-04-01T14:09:24.430Z,0.90
2018-04-01T14:11:50.898Z,1.00
2018-04-01T14:14:17.389Z,1.80
2018-04-01T14:16:43.905Z,1.90
2018-04-01T14:19:10.389Z,2.00
2018-04-01T14:21:36.874Z,2.17
2018-04-01T14:24:03.350Z,1.40
2018-04-01T14:26:29.824Z,1.40
2018-04-01T14:28:56.306Z,1.00
2018-04-01T14:31:22.804Z,1.90
2018-04-01T14:33:49.289Z,2.23
2018-04-01T14:36:15.766Z,0.90
2018-04-01T14:38:42.253Z,1.00
2018-04-01T14:41:08.751Z,1.00
2018-04-01T14:43:35.245Z,0.70
2018-04-01T14:46:01.740Z,0.70
2018-04-01T14:48:28.217Z,1.70
2018-04-01T14:50:54.706Z,4.37
2018-04-01T14:53:21.193Z,2.83
2018-04-01T14:55:47.666Z,1.87
2018-04-01T14:58:14.129Z,1.60
2018-04-01T15:00:40.612Z,0.67
2018-04-01T15:03:07.098Z,0.50
2018-04-01T15:05:33.586Z,0.60
2018-04-01T15:08:00.071Z,0.50
2018-04-01T15:10:26.563Z,0.60
2018-04-01T15:12:53.046Z,0.70
2018-04-01T15:15:19.528Z,0.50
2018-04-01T15:17:46.026Z,0.43
2018-04-01T15:20:12.498Z,0.53
2018-04-01T15:22:38.971Z,0.80
2018-04-01T15:25:05.460Z,0.83
2018-04-01T15:27:31.939Z,0.93
2018-04-01T15:29:58.478Z,1.10
2018-04-01T15:32:24.957Z,1.40
2018-04-01T15:34:51.442Z,1.73
2018-04-01T15:37:17.924Z,1.40
2018-04-01T15:39:44.425Z,0.90
2018-04-01T15:42:10.923Z,0.87
2018-04-01T15:44:37.421Z,1.07
2018-04-01T15:47:03.912Z,1.10
2018-04-01T15:49:30.390Z,1.03
2018-04-01T15:51:56.875Z,1.23
2018-04-01T15:54:23.361Z,0.80
2018-04-01T15:56:49.866Z,0.67
2018-04-01T15:59:16.354Z,1.20
2018-04-01T16:01:42.834Z,2.10
2018-04-01T16:04:09.311Z,2.40
2018-04-01T16:06:35.784Z,1.80
2018-04-01T16:09:02.277Z,1.70
2018-04-01T16:11:28.758Z,1.23
2018-04-01T16:13:55.241Z,1.10
2018-04-01T16:16:21.744Z,0.90
2018-04-01T16:18:48.213Z,0.63
2018-04-01T16:21:14.709Z,1.30
2018-04-01T16:23:41.177Z,0.90
2018-04-01T16:26:07.648Z,1.20
2018-04-01T16:28:34.130Z,1.30
2018-04-01T16:31:00.601Z,0.77
2018-04-01T16:33:27.092Z,1.00
2018-04-01T16:35:53.574Z,0.70
2018-04-01T16:38:20.063Z,0.70
2018-04-01T16:40:46.546Z,1.30
2018-04-01T16:43:13.030Z,0.80
2018-04-01T16:45:39.520Z,0.60
2018-04-01T16:48:06.000Z,0.50
2018-04-01T16:50:32.490Z,0.60
2018-04-01T16:52:58.980Z,0.80
2018-04-01T16:55:25.458Z,0.97
2018-04-01T16:57:51.933Z,1.10
2018-04-01T17:00:18.410Z,0.80
2018-04-01T17:02:44.898Z,0.80
2018-04-01T17:05:11.424Z,0.90
2018-04-01T17:07:37.911Z,1.10
2018-04-01T17:10:04.413Z,2.53
2018-04-01T17:12:30.903Z,3.53
2018-04-01T17:14:57.387Z,3.37
2018-04-01T17:17:23.943Z,1.83
2018-04-01T17:19:50.438Z,2.87
2018-04-01T17:22:16.953Z,1.33
2018-04-01T17:24:43.445Z,1.63
2018-04-01T17:27:09.922Z,2.40
2018-04-01T17:29:36.409Z,2.00
2018-04-01T17:32:02.897Z,2.43
2018-04-01T17:34:29.360Z,2.47
2018-04-01T17:36:55.849Z,2.07
2018-04-01T17:39:22.416Z,1.27
2018-04-01T17:41:48.894Z,1.00
2018-04-01T17:44:15.380Z,0.80
2018-04-01T17:46:41.864Z,0.77
2018-04-01T17:49:08.352Z,1.00
2018-04-01T17:51:34.832Z,0.60
2018-04-01T17:54:01.309Z,0.87
2018-04-01T17:56:27.803Z,1.03
2018-04-01T17:58:54.288Z,1.33
2018-04-01T18:01:20.755Z,0.70
2018-04-01T18:03:47.239Z,0.90
2018-04-01T18:06:13.715Z,0.70
2018-04-01T18:08:40.212Z,0.63
2018-04-01T18:11:06.813Z,1.27
2018-04-01T18:13:33.294Z,1.63
2018-04-01T18:15:59.783Z,1.60
2018-04-01T18:18:26.298Z,1.40
2018-04-01T18:20:52.806Z,1.20
2018-04-01T18:23:19.286Z,1.17
2018-04-01T18:25:45.793Z,1.03
2018-04-01T18:28:12.262Z,1.20
2018-04-01T18:30:38.850Z,1.40
2018-04-01T18:33:05.331Z,1.03
2018-04-01T18:35:31.823Z,0.93
2018-04-01T18:37:58.314Z,1.03
2018-04-01T18:40:24.817Z,1.00
2018-04-01T18:42:51.298Z,1.00
2018-04-01T18:45:17.835Z,0.87
2018-04-01T18:47:44.283Z,0.80
2018-04-01T18:50:10.755Z,0.97
2018-04-01T18:52:37.226Z,1.47
2018-04-01T18:55:03.716Z,1.33
2018-04-01T18:57:30.217Z,0.73
2018-04-01T18:59:56.822Z,1.10
2018-04-01T19:02:23.461Z,1.07
2018-04-01T19:04:49.945Z,1.00
2018-04-01T19:07:16.461Z,0.83
2018-04-01T19:09:42.970Z,0.80
2018-04-01T19:12:09.463Z,1.07
2018-04-01T19:14:35.963Z,0.80
2018-04-01T19:17:09.692Z,1.00
2018-04-01T19:19:36.472Z,0.80
2018-04-01T19:22:03.228Z,0.80
2018-04-01T19:24:30.091Z,0.70
2018-04-01T19:26:56.836Z,0.97
2018-04-01T19:29:23.621Z,0.70
2018-04-01T19:31:50.391Z,1.00
2018-04-01T19:34:17.202Z,1.23
2018-04-01T19:36:43.951Z,1.17
2018-04-01T19:39:10.691Z,2.77
2018-04-01T19:44:30.031Z,2.00
2018-04-01T19:46:57.809Z,2.60
2018-04-01T19:49:26.998Z,3.13
2018-04-01T19:51:56.785Z,3.13
2018-04-01T19:54:25.090Z,2.60
2018-04-01T19:56:51.961Z,3.00
2018-04-01T19:59:18.690Z,2.50
2018-04-01T20:01:45.416Z,2.10
2018-04-01T20:04:12.148Z,2.30
2018-04-01T20:06:38.851Z,1.93
2018-04-01T20:09:05.654Z,2.10
2018-04-01T20:11:32.348Z,1.60
2018-04-01T20:13:59.225Z,1.73
2018-04-01T20:16:25.973Z,1.40
2018-04-01T20:18:52.662Z,1.50
2018-04-01T20:21:19.407Z,1.37
2018-04-01T20:23:46.116Z,1.50
2018-04-01T20:26:12.844Z,1.90
2018-04-01T20:28:39.543Z,1.90
2018-04-01T20:31:06.262Z,1.50
2018-04-01T20:33:32.986Z,1.70
2018-04-01T20:35:59.691Z,1.57
2018-04-01T20:38:26.400Z,1.40
2018-04-01T20:40:53.127Z,0.90
2018-04-01T20:43:19.852Z,0.90
2018-04-01T20:45:46.617Z,2.43
2018-04-01T20:48:14.363Z,1.10
2018-04-01T20:50:41.066Z,0.90
2018-04-01T20:53:07.833Z,0.73
2018-04-01T20:55:34.551Z,0.80
2018-04-01T20:58:01.301Z,0.80
2018-04-01T21:00:28.046Z,0.63
2018-04-01T21:02:54.761Z,0.50
2018-04-01T21:05:21.474Z,0.60
2018-04-01T21:07:48.183Z,0.60
2018-04-01T21:10:14.899Z,0.57
2018-04-01T21:12:41.589Z,0.70
2018-04-01T21:15:08.309Z,0.70
2018-04-01T21:17:35.069Z,0.70
2018-04-01T21:20:01.789Z,0.70
2018-04-01T21:22:29.302Z,0.87
2018-04-01T21:24:56.019Z,0.70
2018-04-01T21:27:22.753Z,0.60
2018-04-01T21:29:49.496Z,1.37
2018-04-01T21:32:16.226Z,1.33
2018-04-01T21:34:42.969Z,1.27
2018-04-01T21:37:09.718Z,1.20
2018-04-01T21:39:36.447Z,2.30
2018-04-01T21:42:03.150Z,2.00
2018-04-01T21:44:29.851Z,2.57
2018-04-01T21:46:56.569Z,3.53
2018-04-01T21:49:23.271Z,2.70
2018-04-01T21:51:49.995Z,3.60
2018-04-01T21:54:16.722Z,4.40
2018-04-01T21:56:43.433Z,3.97
2018-04-01T21:59:10.146Z,3.70
2018-04-01T22:01:36.855Z,3.80
2018-04-01T22:04:03.622Z,3.30
2018-04-01T22:06:30.327Z,3.93
2018-04-01T22:08:57.107Z,3.80
2018-04-01T22:11:23.804Z,3.73
2018-04-01T22:13:50.518Z,3.60
2018-04-01T22:16:17.220Z,3.37
2018-04-01T22:18:43.958Z,2.23
2018-04-01T22:21:10.704Z,0.90
2018-04-01T22:23:37.402Z,1.73
2018-04-01T22:26:04.169Z,2.10
2018-04-01T22:28:30.888Z,1.97
2018-04-01T22:30:57.601Z,1.90
2018-04-01T22:33:24.310Z,1.40
2018-04-01T22:35:51.020Z,1.40
2018-04-01T22:38:17.721Z,1.40
2018-04-01T22:40:44.450Z,1.33
2018-04-01T22:43:11.158Z,1.53
2018-04-01T22:45:37.915Z,1.60
2018-04-01T22:48:04.637Z,2.07
2018-04-01T22:50:31.351Z,2.53
2018-04-01T22:52:58.074Z,2.03
2018-04-01T22:55:24.806Z,2.40
2018-04-01T22:57:51.534Z,2.23
2018-04-01T23:00:18.260Z,1.53
2018-04-01T23:02:44.964Z,2.87
2018-04-01T23:05:11.670Z,3.10
2018-04-01T23:07:38.436Z,3.20
2018-04-01T23:10:05.194Z,1.93
2018-04-01T23:12:31.920Z,1.80
2018-04-01T23:14:58.646Z,1.60
2018-04-01T23:17:25.366Z,1.73
2018-04-01T23:19:52.183Z,2.20
2018-04-01T23:22:18.902Z,3.27
2018-04-01T23:24:45.599Z,3.10
2018-04-01T23:27:12.331Z,2.47
2018-04-01T23:29:39.026Z,1.87
2018-04-01T23:32:05.774Z,2.70
2018-04-01T23:34:32.461Z,5.10
2018-04-01T23:36:59.167Z,9.80
2018-04-01T23:39:25.887Z,7.83
2018-04-01T23:41:52.584Z,6.20
2018-04-01T23:44:19.320Z,5.90
2018-04-01T23:46:46.038Z,5.17
2018-04-01T23:49:12.734Z,7.83
2018-04-01T23:51:39.467Z,17.40
2018-04-01T23:54:06.203Z,16.13
2018-04-01T23:56:32.934Z,11.40
2018-04-01T23:58:59.654Z,10.27
